Calgary, Canada
Current Conditions -  °F | °C
As of 10:00 PM on Friday 19 Dec 2014 (Local Time) from CYYC Reporting Station
Broken Clouds Broken Clouds  
Wind Chill: 33°   Ceiling: 9000
Heat Index: 41°   Visibility: 15mi
Dew Point: 23°   Wind: 14mph
Humidity: 49%   Direction: 280°W
Pressure: 29.68"   Gusts: NA
Location:  51.05°N, 114.06°W
Report Text: CYYC 200500Z 28012KT 15SM BKN090 05/M05 A2968 RMK AC6 SLP090
Loading
Personal Weather Stations






























Interactive Weather Map New forecast layout! Learn more

10-Day Weather Forecast

Advertisements
Track Severe Weather on mobile